sensor_id;sensor_type;location;lat;lon;timestamp;P1;durP1;ratioP1;P2;durP2;ratioP2
57029;SDS011;42920;45.306;20.448;2022-08-01T00:00:43;6.32;;;2.40;;
57029;SDS011;42920;45.306;20.448;2022-08-01T00:03:14;10.02;;;2.45;;
57029;SDS011;42920;45.306;20.448;2022-08-01T00:05:41;5.03;;;2.53;;
57029;SDS011;42920;45.306;20.448;2022-08-01T00:08:08;4.85;;;2.80;;
57029;SDS011;42920;45.306;20.448;2022-08-01T00:10:34;5.63;;;2.72;;
57029;SDS011;42920;45.306;20.448;2022-08-01T00:12:59;10.25;;;2.78;;
57029;SDS011;42920;45.306;20.448;2022-08-01T00:15:25;6.45;;;2.80;;
57029;SDS011;42920;45.306;20.448;2022-08-01T00:17:51;7.43;;;2.72;;
57029;SDS011;42920;45.306;20.448;2022-08-01T00:20:16;5.22;;;2.40;;
57029;SDS011;42920;45.306;20.448;2022-08-01T00:22:42;4.47;;;2.80;;
57029;SDS011;42920;45.306;20.448;2022-08-01T00:25:08;10.10;;;2.70;;
57029;SDS011;42920;45.306;20.448;2022-08-01T00:27:34;4.38;;;2.65;;
57029;SDS011;42920;45.306;20.448;2022-08-01T00:30:00;4.75;;;2.60;;
57029;SDS011;42920;45.306;20.448;2022-08-01T00:32:27;4.82;;;2.72;;
57029;SDS011;42920;45.306;20.448;2022-08-01T00:34:54;6.63;;;3.35;;
57029;SDS011;42920;45.306;20.448;2022-08-01T00:37:20;4.80;;;2.80;;
57029;SDS011;42920;45.306;20.448;2022-08-01T00:39:46;5.78;;;2.55;;
57029;SDS011;42920;45.306;20.448;2022-08-01T00:42:12;5.07;;;2.53;;
57029;SDS011;42920;45.306;20.448;2022-08-01T00:44:39;3.70;;;2.58;;
57029;SDS011;42920;45.306;20.448;2022-08-01T00:47:05;6.80;;;2.83;;
57029;SDS011;42920;45.306;20.448;2022-08-01T00:49:32;3.40;;;2.30;;
57029;SDS011;42920;45.306;20.448;2022-08-01T00:51:58;7.13;;;3.08;;
57029;SDS011;42920;45.306;20.448;2022-08-01T00:54:24;6.90;;;2.50;;
57029;SDS011;42920;45.306;20.448;2022-08-01T00:56:51;3.80;;;2.50;;
57029;SDS011;42920;45.306;20.448;2022-08-01T00:59:18;4.13;;;2.22;;
57029;SDS011;42920;45.306;20.448;2022-08-01T01:01:47;4.57;;;2.55;;
57029;SDS011;42920;45.306;20.448;2022-08-01T01:04:14;3.97;;;2.80;;
57029;SDS011;42920;45.306;20.448;2022-08-01T01:09:40;5.13;;;2.75;;
57029;SDS011;42920;45.306;20.448;2022-08-01T01:17:28;5.97;;;2.40;;
57029;SDS011;42920;45.306;20.448;2022-08-01T01:20:04;7.90;;;2.40;;
57029;SDS011;42920;45.306;20.448;2022-08-01T01:22:42;9.30;;;2.33;;
57029;SDS011;42920;45.306;20.448;2022-08-01T01:28:11;9.65;;;2.63;;
57029;SDS011;42920;45.306;20.448;2022-08-01T01:30:43;5.10;;;2.40;;
57029;SDS011;42920;45.306;20.448;2022-08-01T01:33:14;3.60;;;2.42;;
57029;SDS011;42920;45.306;20.448;2022-08-01T01:35:42;9.30;;;2.70;;
57029;SDS011;42920;45.306;20.448;2022-08-01T01:38:21;8.23;;;2.42;;
57029;SDS011;42920;45.306;20.448;2022-08-01T01:40:51;6.32;;;2.53;;
57029;SDS011;42920;45.306;20.448;2022-08-01T01:43:18;6.00;;;2.47;;
57029;SDS011;42920;45.306;20.448;2022-08-01T01:45:45;5.97;;;2.88;;
57029;SDS011;42920;45.306;20.448;2022-08-01T01:48:13;4.53;;;2.75;;
57029;SDS011;42920;45.306;20.448;2022-08-01T01:50:43;5.38;;;2.60;;
57029;SDS011;42920;45.306;20.448;2022-08-01T01:53:11;5.50;;;2.95;;
57029;SDS011;42920;45.306;20.448;2022-08-01T01:55:41;4.82;;;2.53;;
57029;SDS011;42920;45.306;20.448;2022-08-01T01:58:09;5.55;;;3.20;;
57029;SDS011;42920;45.306;20.448;2022-08-01T02:00:38;5.15;;;2.72;;
57029;SDS011;42920;45.306;20.448;2022-08-01T02:03:06;6.47;;;2.97;;
57029;SDS011;42920;45.306;20.448;2022-08-01T02:05:34;4.32;;;2.53;;
57029;SDS011;42920;45.306;20.448;2022-08-01T02:08:02;4.88;;;2.83;;
57029;SDS011;42920;45.306;20.448;2022-08-01T02:10:30;5.38;;;2.95;;
57029;SDS011;42920;45.306;20.448;2022-08-01T02:12:57;7.40;;;3.33;;
57029;SDS011;42920;45.306;20.448;2022-08-01T02:15:27;6.25;;;3.15;;
57029;SDS011;42920;45.306;20.448;2022-08-01T02:17:56;5.55;;;2.88;;
57029;SDS011;42920;45.306;20.448;2022-08-01T02:20:22;4.80;;;2.67;;
57029;SDS011;42920;45.306;20.448;2022-08-01T02:22:52;4.97;;;2.40;;
57029;SDS011;42920;45.306;20.448;2022-08-01T02:25:23;7.10;;;2.35;;
57029;SDS011;42920;45.306;20.448;2022-08-01T02:30:25;5.03;;;2.65;;
57029;SDS011;42920;45.306;20.448;2022-08-01T02:33:02;5.22;;;2.60;;
57029;SDS011;42920;45.306;20.448;2022-08-01T02:35:33;8.82;;;3.00;;
57029;SDS011;42920;45.306;20.448;2022-08-01T02:38:03;6.22;;;2.90;;
57029;SDS011;42920;45.306;20.448;2022-08-01T02:40:32;8.02;;;2.85;;
57029;SDS011;42920;45.306;20.448;2022-08-01T02:43:01;4.15;;;2.90;;
57029;SDS011;42920;45.306;20.448;2022-08-01T02:45:28;4.65;;;2.80;;
57029;SDS011;42920;45.306;20.448;2022-08-01T02:47:59;3.55;;;2.58;;
57029;SDS011;42920;45.306;20.448;2022-08-01T02:50:30;6.22;;;2.65;;
57029;SDS011;42920;45.306;20.448;2022-08-01T02:53:01;9.88;;;2.92;;
57029;SDS011;42920;45.306;20.448;2022-08-01T02:55:28;7.28;;;2.80;;
57029;SDS011;42920;45.306;20.448;2022-08-01T02:57:57;4.70;;;2.97;;
57029;SDS011;42920;45.306;20.448;2022-08-01T03:00:26;7.10;;;3.45;;
57029;SDS011;42920;45.306;20.448;2022-08-01T03:02:53;7.05;;;3.20;;
57029;SDS011;42920;45.306;20.448;2022-08-01T03:05:22;9.65;;;4.07;;
57029;SDS011;42920;45.306;20.448;2022-08-01T03:07:50;5.20;;;2.85;;
57029;SDS011;42920;45.306;20.448;2022-08-01T03:10:18;5.90;;;3.42;;
57029;SDS011;42920;45.306;20.448;2022-08-01T03:12:44;5.85;;;3.10;;
57029;SDS011;42920;45.306;20.448;2022-08-01T03:15:12;9.25;;;3.20;;
57029;SDS011;42920;45.306;20.448;2022-08-01T03:17:38;6.72;;;3.40;;
57029;SDS011;42920;45.306;20.448;2022-08-01T03:20:08;10.07;;;3.40;;
57029;SDS011;42920;45.306;20.448;2022-08-01T03:22:38;12.77;;;3.17;;
57029;SDS011;42920;45.306;20.448;2022-08-01T03:25:05;8.68;;;3.40;;
57029;SDS011;42920;45.306;20.448;2022-08-01T03:27:33;5.57;;;3.35;;
57029;SDS011;42920;45.306;20.448;2022-08-01T03:30:03;5.50;;;3.13;;
57029;SDS011;42920;45.306;20.448;2022-08-01T03:32:30;9.55;;;3.95;;
57029;SDS011;42920;45.306;20.448;2022-08-01T03:34:56;5.70;;;2.95;;
57029;SDS011;42920;45.306;20.448;2022-08-01T03:37:41;4.78;;;3.65;;
57029;SDS011;42920;45.306;20.448;2022-08-01T03:40:13;7.18;;;3.67;;
57029;SDS011;42920;45.306;20.448;2022-08-01T03:42:47;6.45;;;3.08;;
57029;SDS011;42920;45.306;20.448;2022-08-01T03:45:37;7.47;;;4.00;;
57029;SDS011;42920;45.306;20.448;2022-08-01T03:48:09;8.52;;;3.38;;
57029;SDS011;42920;45.306;20.448;2022-08-01T03:50:43;5.97;;;3.80;;
57029;SDS011;42920;45.306;20.448;2022-08-01T03:53:12;7.80;;;3.50;;
57029;SDS011;42920;45.306;20.448;2022-08-01T03:55:39;9.77;;;3.50;;
57029;SDS011;42920;45.306;20.448;2022-08-01T03:58:08;6.55;;;3.75;;
57029;SDS011;42920;45.306;20.448;2022-08-01T04:00:35;6.80;;;4.05;;
57029;SDS011;42920;45.306;20.448;2022-08-01T04:03:07;6.68;;;3.83;;
57029;SDS011;42920;45.306;20.448;2022-08-01T04:05:33;8.50;;;3.63;;
57029;SDS011;42920;45.306;20.448;2022-08-01T04:08:00;8.10;;;3.58;;
57029;SDS011;42920;45.306;20.448;2022-08-01T04:10:28;7.75;;;3.47;;
57029;SDS011;42920;45.306;20.448;2022-08-01T04:12:54;6.78;;;3.70;;
57029;SDS011;42920;45.306;20.448;2022-08-01T04:15:20;10.90;;;3.88;;
57029;SDS011;42920;45.306;20.448;2022-08-01T04:17:46;6.40;;;3.38;;
57029;SDS011;42920;45.306;20.448;2022-08-01T04:20:12;11.48;;;3.90;;
57029;SDS011;42920;45.306;20.448;2022-08-01T04:22:38;5.32;;;3.45;;
57029;SDS011;42920;45.306;20.448;2022-08-01T04:25:06;8.38;;;3.83;;
57029;SDS011;42920;45.306;20.448;2022-08-01T04:27:36;12.10;;;4.38;;
57029;SDS011;42920;45.306;20.448;2022-08-01T04:30:04;6.60;;;3.92;;
57029;SDS011;42920;45.306;20.448;2022-08-01T04:32:34;7.25;;;4.13;;
57029;SDS011;42920;45.306;20.448;2022-08-01T04:35:04;8.90;;;3.90;;
57029;SDS011;42920;45.306;20.448;2022-08-01T04:37:32;9.23;;;4.05;;
57029;SDS011;42920;45.306;20.448;2022-08-01T04:40:02;9.88;;;4.55;;
57029;SDS011;42920;45.306;20.448;2022-08-01T04:42:30;9.65;;;4.13;;
57029;SDS011;42920;45.306;20.448;2022-08-01T04:44:57;11.07;;;4.38;;
57029;SDS011;42920;45.306;20.448;2022-08-01T04:47:23;8.30;;;4.90;;
57029;SDS011;42920;45.306;20.448;2022-08-01T04:49:50;9.73;;;4.57;;
57029;SDS011;42920;45.306;20.448;2022-08-01T04:52:17;8.93;;;4.90;;
57029;SDS011;42920;45.306;20.448;2022-08-01T04:54:43;9.93;;;4.80;;
57029;SDS011;42920;45.306;20.448;2022-08-01T04:57:09;5.90;;;4.65;;
57029;SDS011;42920;45.306;20.448;2022-08-01T04:59:35;9.93;;;5.95;;
57029;SDS011;42920;45.306;20.448;2022-08-01T05:02:07;8.45;;;4.63;;
57029;SDS011;42920;45.306;20.448;2022-08-01T05:04:33;10.82;;;5.57;;
57029;SDS011;42920;45.306;20.448;2022-08-01T05:06:59;15.98;;;5.32;;
57029;SDS011;42920;45.306;20.448;2022-08-01T05:09:25;9.63;;;4.50;;
57029;SDS011;42920;45.306;20.448;2022-08-01T05:11:51;7.03;;;4.40;;
57029;SDS011;42920;45.306;20.448;2022-08-01T05:14:17;7.32;;;4.68;;
57029;SDS011;42920;45.306;20.448;2022-08-01T05:16:43;11.55;;;3.83;;
57029;SDS011;42920;45.306;20.448;2022-08-01T05:19:10;5.68;;;4.55;;
57029;SDS011;42920;45.306;20.448;2022-08-01T05:21:36;5.80;;;3.88;;
57029;SDS011;42920;45.306;20.448;2022-08-01T05:24:02;9.70;;;4.35;;
57029;SDS011;42920;45.306;20.448;2022-08-01T05:26:31;5.00;;;4.00;;
57029;SDS011;42920;45.306;20.448;2022-08-01T05:28:58;8.43;;;4.45;;
57029;SDS011;42920;45.306;20.448;2022-08-01T05:31:24;9.23;;;4.80;;
57029;SDS011;42920;45.306;20.448;2022-08-01T05:33:50;11.13;;;3.72;;
57029;SDS011;42920;45.306;20.448;2022-08-01T05:36:15;9.82;;;4.40;;
57029;SDS011;42920;45.306;20.448;2022-08-01T05:38:41;7.15;;;3.75;;
57029;SDS011;42920;45.306;20.448;2022-08-01T05:41:07;6.30;;;4.05;;
57029;SDS011;42920;45.306;20.448;2022-08-01T05:43:33;9.82;;;4.32;;
57029;SDS011;42920;45.306;20.448;2022-08-01T05:45:58;14.57;;;5.35;;
57029;SDS011;42920;45.306;20.448;2022-08-01T05:48:24;7.40;;;3.95;;
57029;SDS011;42920;45.306;20.448;2022-08-01T05:50:50;6.32;;;4.07;;
57029;SDS011;42920;45.306;20.448;2022-08-01T05:53:16;7.28;;;4.10;;
57029;SDS011;42920;45.306;20.448;2022-08-01T05:55:42;7.78;;;3.95;;
57029;SDS011;42920;45.306;20.448;2022-08-01T05:58:08;13.55;;;4.07;;
57029;SDS011;42920;45.306;20.448;2022-08-01T06:00:34;8.02;;;4.43;;
57029;SDS011;42920;45.306;20.448;2022-08-01T06:02:59;6.25;;;4.10;;
57029;SDS011;42920;45.306;20.448;2022-08-01T06:05:25;11.68;;;3.90;;
57029;SDS011;42920;45.306;20.448;2022-08-01T06:07:51;6.05;;;4.18;;
57029;SDS011;42920;45.306;20.448;2022-08-01T06:10:17;9.30;;;3.60;;
57029;SDS011;42920;45.306;20.448;2022-08-01T06:12:42;10.73;;;3.63;;
57029;SDS011;42920;45.306;20.448;2022-08-01T06:15:08;5.65;;;3.72;;
57029;SDS011;42920;45.306;20.448;2022-08-01T06:17:34;6.57;;;3.88;;
57029;SDS011;42920;45.306;20.448;2022-08-01T06:20:00;13.13;;;4.22;;
57029;SDS011;42920;45.306;20.448;2022-08-01T06:22:26;9.43;;;3.40;;
57029;SDS011;42920;45.306;20.448;2022-08-01T06:24:52;5.57;;;2.65;;
57029;SDS011;42920;45.306;20.448;2022-08-01T06:27:17;4.95;;;2.85;;
57029;SDS011;42920;45.306;20.448;2022-08-01T06:29:43;10.68;;;3.80;;
57029;SDS011;42920;45.306;20.448;2022-08-01T06:32:09;6.38;;;3.63;;
57029;SDS011;42920;45.306;20.448;2022-08-01T06:34:35;5.53;;;3.45;;
57029;SDS011;42920;45.306;20.448;2022-08-01T06:37:01;7.90;;;3.88;;
57029;SDS011;42920;45.306;20.448;2022-08-01T06:39:27;6.68;;;3.78;;
57029;SDS011;42920;45.306;20.448;2022-08-01T06:41:52;13.02;;;4.05;;
57029;SDS011;42920;45.306;20.448;2022-08-01T06:44:18;6.35;;;3.78;;
57029;SDS011;42920;45.306;20.448;2022-08-01T06:46:44;7.85;;;3.90;;
57029;SDS011;42920;45.306;20.448;2022-08-01T06:49:09;8.07;;;4.13;;
57029;SDS011;42920;45.306;20.448;2022-08-01T06:51:35;6.93;;;4.38;;
57029;SDS011;42920;45.306;20.448;2022-08-01T06:54:01;6.95;;;4.55;;
57029;SDS011;42920;45.306;20.448;2022-08-01T06:56:27;7.95;;;3.90;;
57029;SDS011;42920;45.306;20.448;2022-08-01T06:58:52;5.30;;;3.13;;
57029;SDS011;42920;45.306;20.448;2022-08-01T07:01:21;7.65;;;3.83;;
57029;SDS011;42920;45.306;20.448;2022-08-01T07:03:46;6.63;;;3.40;;
57029;SDS011;42920;45.306;20.448;2022-08-01T07:06:12;7.53;;;4.18;;
57029;SDS011;42920;45.306;20.448;2022-08-01T07:08:39;8.30;;;3.38;;
57029;SDS011;42920;45.306;20.448;2022-08-01T07:11:05;5.60;;;3.42;;
57029;SDS011;42920;45.306;20.448;2022-08-01T07:13:31;6.07;;;3.53;;
57029;SDS011;42920;45.306;20.448;2022-08-01T07:15:57;10.38;;;4.30;;
57029;SDS011;42920;45.306;20.448;2022-08-01T07:18:23;7.97;;;4.45;;
57029;SDS011;42920;45.306;20.448;2022-08-01T07:20:49;9.95;;;3.70;;
57029;SDS011;42920;45.306;20.448;2022-08-01T07:23:15;6.57;;;2.65;;
57029;SDS011;42920;45.306;20.448;2022-08-01T07:25:42;6.13;;;3.25;;
57029;SDS011;42920;45.306;20.448;2022-08-01T07:28:08;4.03;;;2.70;;
57029;SDS011;42920;45.306;20.448;2022-08-01T07:30:34;6.72;;;3.58;;
57029;SDS011;42920;45.306;20.448;2022-08-01T07:33:00;5.10;;;3.17;;
57029;SDS011;42920;45.306;20.448;2022-08-01T07:35:26;7.90;;;3.17;;
57029;SDS011;42920;45.306;20.448;2022-08-01T07:37:52;4.40;;;3.17;;
57029;SDS011;42920;45.306;20.448;2022-08-01T07:40:18;5.63;;;3.65;;
57029;SDS011;42920;45.306;20.448;2022-08-01T07:42:44;7.68;;;3.22;;
57029;SDS011;42920;45.306;20.448;2022-08-01T07:45:10;6.55;;;3.35;;
57029;SDS011;42920;45.306;20.448;2022-08-01T07:47:36;5.90;;;3.28;;
57029;SDS011;42920;45.306;20.448;2022-08-01T07:50:04;6.03;;;2.90;;
57029;SDS011;42920;45.306;20.448;2022-08-01T07:52:31;6.00;;;2.75;;
57029;SDS011;42920;45.306;20.448;2022-08-01T07:54:57;4.78;;;3.08;;
57029;SDS011;42920;45.306;20.448;2022-08-01T07:57:23;7.32;;;2.80;;
57029;SDS011;42920;45.306;20.448;2022-08-01T07:59:50;3.83;;;2.78;;
57029;SDS011;42920;45.306;20.448;2022-08-01T08:02:16;4.95;;;3.03;;
57029;SDS011;42920;45.306;20.448;2022-08-01T08:04:42;4.57;;;2.80;;
57029;SDS011;42920;45.306;20.448;2022-08-01T08:07:08;6.15;;;3.00;;
57029;SDS011;42920;45.306;20.448;2022-08-01T08:09:34;6.50;;;2.67;;
57029;SDS011;42920;45.306;20.448;2022-08-01T08:11:59;6.30;;;2.78;;
57029;SDS011;42920;45.306;20.448;2022-08-01T08:14:25;4.25;;;2.63;;
57029;SDS011;42920;45.306;20.448;2022-08-01T08:16:51;8.05;;;3.17;;
57029;SDS011;42920;45.306;20.448;2022-08-01T08:19:17;6.93;;;2.83;;
57029;SDS011;42920;45.306;20.448;2022-08-01T08:21:43;7.72;;;3.17;;
57029;SDS011;42920;45.306;20.448;2022-08-01T08:24:09;6.53;;;2.90;;
57029;SDS011;42920;45.306;20.448;2022-08-01T08:26:50;3.97;;;2.72;;
57029;SDS011;42920;45.306;20.448;2022-08-01T08:29:18;10.38;;;3.30;;
57029;SDS011;42920;45.306;20.448;2022-08-01T08:31:44;4.93;;;2.80;;
57029;SDS011;42920;45.306;20.448;2022-08-01T08:34:10;4.90;;;2.88;;
57029;SDS011;42920;45.306;20.448;2022-08-01T08:36:37;5.13;;;3.47;;
57029;SDS011;42920;45.306;20.448;2022-08-01T08:39:03;6.18;;;2.92;;
57029;SDS011;42920;45.306;20.448;2022-08-01T08:41:30;5.50;;;3.45;;
57029;SDS011;42920;45.306;20.448;2022-08-01T08:44:06;8.88;;;2.75;;
57029;SDS011;42920;45.306;20.448;2022-08-01T08:46:33;6.78;;;2.95;;
57029;SDS011;42920;45.306;20.448;2022-08-01T08:49:05;7.45;;;3.15;;
57029;SDS011;42920;45.306;20.448;2022-08-01T08:51:32;12.93;;;2.92;;
57029;SDS011;42920;45.306;20.448;2022-08-01T08:53:59;6.15;;;2.60;;
57029;SDS011;42920;45.306;20.448;2022-08-01T08:56:27;3.30;;;2.40;;
57029;SDS011;42920;45.306;20.448;2022-08-01T08:58:58;5.15;;;2.80;;
57029;SDS011;42920;45.306;20.448;2022-08-01T09:01:25;6.05;;;2.88;;
57029;SDS011;42920;45.306;20.448;2022-08-01T09:03:51;4.65;;;3.08;;
57029;SDS011;42920;45.306;20.448;2022-08-01T09:06:18;5.97;;;2.80;;
57029;SDS011;42920;45.306;20.448;2022-08-01T09:08:44;6.10;;;3.00;;
57029;SDS011;42920;45.306;20.448;2022-08-01T09:11:09;6.78;;;3.10;;
57029;SDS011;42920;45.306;20.448;2022-08-01T09:13:35;8.52;;;3.25;;
57029;SDS011;42920;45.306;20.448;2022-08-01T09:16:01;6.38;;;3.20;;
57029;SDS011;42920;45.306;20.448;2022-08-01T09:18:28;5.45;;;2.88;;
57029;SDS011;42920;45.306;20.448;2022-08-01T09:21:27;3.60;;;2.75;;
57029;SDS011;42920;45.306;20.448;2022-08-01T09:23:50;5.85;;;2.80;;
57029;SDS011;42920;45.306;20.448;2022-08-01T09:26:19;10.55;;;3.45;;
57029;SDS011;42920;45.306;20.448;2022-08-01T09:28:47;8.90;;;2.83;;
57029;SDS011;42920;45.306;20.448;2022-08-01T09:31:15;9.38;;;4.18;;
57029;SDS011;42920;45.306;20.448;2022-08-01T09:33:56;4.97;;;3.30;;
57029;SDS011;42920;45.306;20.448;2022-08-01T09:36:27;28.90;;;5.55;;
57029;SDS011;42920;45.306;20.448;2022-08-01T09:39:14;9.63;;;3.17;;
57029;SDS011;42920;45.306;20.448;2022-08-01T09:41:41;4.43;;;3.08;;
57029;SDS011;42920;45.306;20.448;2022-08-01T09:44:07;5.32;;;3.10;;
57029;SDS011;42920;45.306;20.448;2022-08-01T09:46:33;6.78;;;3.50;;
57029;SDS011;42920;45.306;20.448;2022-08-01T09:49:00;4.65;;;3.28;;
57029;SDS011;42920;45.306;20.448;2022-08-01T09:51:28;7.40;;;3.20;;
57029;SDS011;42920;45.306;20.448;2022-08-01T09:53:54;7.32;;;3.25;;
57029;SDS011;42920;45.306;20.448;2022-08-01T09:56:21;7.35;;;3.78;;
57029;SDS011;42920;45.306;20.448;2022-08-01T10:01:20;8.30;;;3.10;;
57029;SDS011;42920;45.306;20.448;2022-08-01T10:03:47;19.60;;;4.45;;
57029;SDS011;42920;45.306;20.448;2022-08-01T10:06:49;5.40;;;2.85;;
57029;SDS011;42920;45.306;20.448;2022-08-01T10:09:28;11.85;;;3.63;;
57029;SDS011;42920;45.306;20.448;2022-08-01T10:11:55;5.95;;;3.28;;
57029;SDS011;42920;45.306;20.448;2022-08-01T10:14:22;5.38;;;3.25;;
57029;SDS011;42920;45.306;20.448;2022-08-01T10:16:51;5.45;;;3.50;;
57029;SDS011;42920;45.306;20.448;2022-08-01T10:19:18;6.47;;;3.40;;
57029;SDS011;42920;45.306;20.448;2022-08-01T10:21:48;8.25;;;3.17;;
57029;SDS011;42920;45.306;20.448;2022-08-01T10:24:17;15.38;;;3.38;;
57029;SDS011;42920;45.306;20.448;2022-08-01T10:26:44;4.95;;;3.10;;
57029;SDS011;42920;45.306;20.448;2022-08-01T10:29:15;5.10;;;3.20;;
57029;SDS011;42920;45.306;20.448;2022-08-01T10:31:43;9.20;;;3.72;;
57029;SDS011;42920;45.306;20.448;2022-08-01T10:34:09;5.82;;;3.38;;
57029;SDS011;42920;45.306;20.448;2022-08-01T10:36:37;5.25;;;3.58;;
57029;SDS011;42920;45.306;20.448;2022-08-01T10:39:05;5.47;;;2.75;;
57029;SDS011;42920;45.306;20.448;2022-08-01T10:41:31;10.82;;;3.72;;
57029;SDS011;42920;45.306;20.448;2022-08-01T10:44:00;16.60;;;2.95;;
57029;SDS011;42920;45.306;20.448;2022-08-01T10:46:27;16.85;;;3.72;;
57029;SDS011;42920;45.306;20.448;2022-08-01T10:49:00;17.55;;;3.78;;
57029;SDS011;42920;45.306;20.448;2022-08-01T10:51:34;7.00;;;2.55;;
57029;SDS011;42920;45.306;20.448;2022-08-01T10:54:05;5.43;;;2.80;;
57029;SDS011;42920;45.306;20.448;2022-08-01T10:56:45;7.45;;;2.67;;
57029;SDS011;42920;45.306;20.448;2022-08-01T10:59:23;4.88;;;2.70;;
57029;SDS011;42920;45.306;20.448;2022-08-01T11:01:57;3.70;;;2.40;;
57029;SDS011;42920;45.306;20.448;2022-08-01T11:07:38;4.15;;;2.58;;
57029;SDS011;42920;45.306;20.448;2022-08-01T11:10:19;8.32;;;3.00;;
57029;SDS011;42920;45.306;20.448;2022-08-01T11:12:55;5.90;;;2.42;;
57029;SDS011;42920;45.306;20.448;2022-08-01T11:15:21;3.75;;;2.50;;
57029;SDS011;42920;45.306;20.448;2022-08-01T11:17:52;6.10;;;2.70;;
57029;SDS011;42920;45.306;20.448;2022-08-01T11:25:26;6.60;;;2.88;;
57029;SDS011;42920;45.306;20.448;2022-08-01T11:30:43;8.40;;;2.53;;
57029;SDS011;42920;45.306;20.448;2022-08-01T11:33:10;3.35;;;2.50;;
57029;SDS011;42920;45.306;20.448;2022-08-01T11:35:37;6.57;;;3.20;;
57029;SDS011;42920;45.306;20.448;2022-08-01T11:38:26;6.30;;;3.50;;
57029;SDS011;42920;45.306;20.448;2022-08-01T11:49:31;6.32;;;2.58;;
57029;SDS011;42920;45.306;20.448;2022-08-01T11:57:11;4.95;;;2.60;;
57029;SDS011;42920;45.306;20.448;2022-08-01T11:59:45;6.73;;;2.60;;
57029;SDS011;42920;45.306;20.448;2022-08-01T12:02:20;6.28;;;2.70;;
57029;SDS011;42920;45.306;20.448;2022-08-01T12:04:48;9.80;;;2.97;;
57029;SDS011;42920;45.306;20.448;2022-08-01T12:07:16;7.03;;;2.65;;
57029;SDS011;42920;45.306;20.448;2022-08-01T12:09:43;4.80;;;2.42;;
57029;SDS011;42920;45.306;20.448;2022-08-01T12:12:11;5.75;;;2.55;;
57029;SDS011;42920;45.306;20.448;2022-08-01T12:14:39;4.93;;;2.55;;
57029;SDS011;42920;45.306;20.448;2022-08-01T12:17:05;6.80;;;2.58;;
57029;SDS011;42920;45.306;20.448;2022-08-01T12:19:31;4.03;;;2.85;;
57029;SDS011;42920;45.306;20.448;2022-08-01T12:24:34;4.07;;;2.95;;
57029;SDS011;42920;45.306;20.448;2022-08-01T12:27:00;4.40;;;2.92;;
57029;SDS011;42920;45.306;20.448;2022-08-01T12:29:33;10.05;;;2.58;;
57029;SDS011;42920;45.306;20.448;2022-08-01T12:31:59;4.65;;;2.60;;
57029;SDS011;42920;45.306;20.448;2022-08-01T12:34:26;10.70;;;3.38;;
57029;SDS011;42920;45.306;20.448;2022-08-01T12:36:54;7.38;;;2.67;;
57029;SDS011;42920;45.306;20.448;2022-08-01T12:39:31;11.73;;;2.97;;
57029;SDS011;42920;45.306;20.448;2022-08-01T12:41:58;6.18;;;3.00;;
57029;SDS011;42920;45.306;20.448;2022-08-01T12:44:24;12.65;;;3.08;;
57029;SDS011;42920;45.306;20.448;2022-08-01T12:46:54;9.68;;;3.42;;
57029;SDS011;42920;45.306;20.448;2022-08-01T12:49:21;5.35;;;3.55;;
57029;SDS011;42920;45.306;20.448;2022-08-01T12:51:48;5.93;;;2.78;;
57029;SDS011;42920;45.306;20.448;2022-08-01T12:54:14;9.05;;;2.83;;
57029;SDS011;42920;45.306;20.448;2022-08-01T12:56:40;7.38;;;2.80;;
57029;SDS011;42920;45.306;20.448;2022-08-01T12:59:19;5.28;;;2.67;;
57029;SDS011;42920;45.306;20.448;2022-08-01T13:01:50;4.78;;;2.80;;
57029;SDS011;42920;45.306;20.448;2022-08-01T13:04:17;4.53;;;2.30;;
57029;SDS011;42920;45.306;20.448;2022-08-01T13:06:43;2.90;;;2.22;;
57029;SDS011;42920;45.306;20.448;2022-08-01T13:09:09;4.22;;;2.60;;
57029;SDS011;42920;45.306;20.448;2022-08-01T13:11:36;8.15;;;2.42;;
57029;SDS011;42920;45.306;20.448;2022-08-01T13:14:02;7.68;;;3.15;;
57029;SDS011;42920;45.306;20.448;2022-08-01T13:16:28;4.97;;;2.78;;
57029;SDS011;42920;45.306;20.448;2022-08-01T13:18:55;5.07;;;3.13;;
57029;SDS011;42920;45.306;20.448;2022-08-01T13:24:01;16.38;;;3.00;;
57029;SDS011;42920;45.306;20.448;2022-08-01T13:29:05;13.05;;;2.95;;
57029;SDS011;42920;45.306;20.448;2022-08-01T13:31:33;15.52;;;3.65;;
57029;SDS011;42920;45.306;20.448;2022-08-01T13:33:59;5.60;;;2.60;;
57029;SDS011;42920;45.306;20.448;2022-08-01T13:36:26;6.03;;;3.05;;
57029;SDS011;42920;45.306;20.448;2022-08-01T13:38:53;8.35;;;2.72;;
57029;SDS011;42920;45.306;20.448;2022-08-01T13:41:38;7.18;;;3.00;;
57029;SDS011;42920;45.306;20.448;2022-08-01T13:44:04;13.38;;;3.08;;
57029;SDS011;42920;45.306;20.448;2022-08-01T13:46:30;19.02;;;3.28;;
57029;SDS011;42920;45.306;20.448;2022-08-01T13:48:57;47.75;;;4.65;;
57029;SDS011;42920;45.306;20.448;2022-08-01T13:51:23;11.35;;;3.35;;
57029;SDS011;42920;45.306;20.448;2022-08-01T13:53:49;6.40;;;2.90;;
57029;SDS011;42920;45.306;20.448;2022-08-01T13:56:15;7.57;;;2.88;;
57029;SDS011;42920;45.306;20.448;2022-08-01T13:58:42;9.85;;;2.75;;
57029;SDS011;42920;45.306;20.448;2022-08-01T14:01:08;21.20;;;3.30;;
57029;SDS011;42920;45.306;20.448;2022-08-01T14:03:34;8.88;;;2.90;;
57029;SDS011;42920;45.306;20.448;2022-08-01T14:06:00;6.55;;;2.60;;
57029;SDS011;42920;45.306;20.448;2022-08-01T14:08:26;8.45;;;3.20;;
57029;SDS011;42920;45.306;20.448;2022-08-01T14:10:52;6.10;;;4.05;;
57029;SDS011;42920;45.306;20.448;2022-08-01T14:13:18;7.18;;;2.85;;
57029;SDS011;42920;45.306;20.448;2022-08-01T14:15:44;4.68;;;2.80;;
57029;SDS011;42920;45.306;20.448;2022-08-01T14:18:10;11.80;;;3.13;;
57029;SDS011;42920;45.306;20.448;2022-08-01T14:20:36;10.48;;;3.15;;
57029;SDS011;42920;45.306;20.448;2022-08-01T14:23:03;6.13;;;2.50;;
57029;SDS011;42920;45.306;20.448;2022-08-01T14:25:29;4.55;;;2.40;;
57029;SDS011;42920;45.306;20.448;2022-08-01T14:27:55;8.85;;;2.72;;
57029;SDS011;42920;45.306;20.448;2022-08-01T14:30:21;6.68;;;2.92;;
57029;SDS011;42920;45.306;20.448;2022-08-01T14:32:47;5.05;;;2.67;;
57029;SDS011;42920;45.306;20.448;2022-08-01T14:35:13;5.28;;;3.33;;
57029;SDS011;42920;45.306;20.448;2022-08-01T14:37:38;3.72;;;2.55;;
57029;SDS011;42920;45.306;20.448;2022-08-01T14:40:04;9.85;;;2.80;;
57029;SDS011;42920;45.306;20.448;2022-08-01T14:42:34;5.57;;;2.58;;
57029;SDS011;42920;45.306;20.448;2022-08-01T14:45:03;4.18;;;2.80;;
57029;SDS011;42920;45.306;20.448;2022-08-01T14:47:36;9.68;;;2.63;;
57029;SDS011;42920;45.306;20.448;2022-08-01T14:50:04;4.50;;;2.53;;
57029;SDS011;42920;45.306;20.448;2022-08-01T14:52:31;7.85;;;2.50;;
57029;SDS011;42920;45.306;20.448;2022-08-01T14:54:58;7.00;;;2.45;;
57029;SDS011;42920;45.306;20.448;2022-08-01T14:57:24;5.78;;;2.83;;
57029;SDS011;42920;45.306;20.448;2022-08-01T14:59:50;5.10;;;2.50;;
57029;SDS011;42920;45.306;20.448;2022-08-01T15:02:16;4.43;;;2.70;;
57029;SDS011;42920;45.306;20.448;2022-08-01T15:04:44;4.22;;;2.53;;
57029;SDS011;42920;45.306;20.448;2022-08-01T15:07:12;4.93;;;2.75;;
57029;SDS011;42920;45.306;20.448;2022-08-01T15:09:38;7.78;;;2.63;;
57029;SDS011;42920;45.306;20.448;2022-08-01T15:12:04;7.57;;;2.65;;
57029;SDS011;42920;45.306;20.448;2022-08-01T15:14:30;7.00;;;2.92;;
57029;SDS011;42920;45.306;20.448;2022-08-01T15:17:18;7.75;;;2.80;;
57029;SDS011;42920;45.306;20.448;2022-08-01T15:19:50;4.75;;;2.60;;
57029;SDS011;42920;45.306;20.448;2022-08-01T15:22:21;5.40;;;3.00;;
57029;SDS011;42920;45.306;20.448;2022-08-01T15:24:52;7.18;;;2.85;;
57029;SDS011;42920;45.306;20.448;2022-08-01T15:27:18;10.40;;;2.75;;